Latest Weather Observations for Kalumburu

IDD60801

Issued at 3:31 pm CST Monday 25 July 2016 (issued every 30 minutes, with the page automatically refreshed every 10 minutes)

About weather observations | Map of weather stations | Latest weather observations for NT | Other Formats
Station Details ID: 001019 Name: KALUMBURU Lat: -14.30 Lon: 126.65 Height: 23.0 m
Data from the previous 72 hours. | See also: Recent months at Kalumburu
Date/Time
CST
Temp
°C
App
Temp
°C
Dew
Point
°C
Rel
Hum
%
Delta-T
°C
Wind Press
QNH
hPa
Press
MSL
hPa
Rain since
9am
mm
Dir  Spd
km/h
Gust
km/h
Spd
kts
Gust
kts
25/03:30pm 35.3 32.6 8.9 20 15.1 ENE 13 19 7 10 1009.9 1009.8 0.0
25/03:00pm 34.8 33.1 9.9 22 14.4 E 9 20 5 11 1010.1 1010.0 0.0
25/02:30pm 35.7 32.3 9.3 20 15.2 ENE 17 24 9 13 1010.4 1010.3 0.0
25/02:00pm 35.7 32.7 9.3 20 15.2 ENE 15 24 8 13 1010.9 1010.8 0.0
25/01:30pm 35.1 32.4 10.2 22 14.5 E 15 32 8 17 1011.5 1011.4 0.0
25/01:00pm 35.2 32.3 10.9 23 14.3 ENE 17 26 9 14 1012.1 1012.0 0.0
25/12:30pm 34.1 30.9 10.0 23 13.9 E 17 26 9 14 1012.7 1012.6 0.0
25/12:00pm 33.4 29.5 9.4 23 13.7 ESE 20 35 11 19 1013.2 1013.1 0.0
25/11:30am 33.2 29.5 9.3 23 13.6 ESE 19 33 10 18 1013.4 1013.3 0.0
25/11:00am 31.6 26.5 9.2 25 12.6 ESE 26 39 14 21 1013.6 1013.5 0.0
25/10:30am 31.3 28.5 10.1 27 12.1 SE 15 30 8 16 1013.8 1013.7 -
25/10:00am 29.0 27.7 12.4 36 9.7 SSE 11 19 6 10 1013.9 1013.8 -
25/09:30am 26.1 27.2 17.2 58 5.6 S 7 11 4 6 1013.8 1013.7 -
25/09:00am 23.6 25.3 18.5 73 3.2 SSW 7 11 4 6 1013.7 1013.6 -
25/08:30am 21.8 23.6 18.4 81 2.1 SSW 6 9 3 5 1013.4 1013.3 -
25/08:00am 19.4 20.8 17.4 88 1.2 S 6 7 3 4 1013.3 1013.2 -
25/07:30am 18.8 21.0 16.6 87 1.3 CALM 0 0 0 0 1013.0 1012.9 -
25/07:00am 19.4 21.8 17.0 86 1.5 CALM 0 0 0 0 1012.6 1012.5 -
25/06:30am 19.9 22.5 17.5 86 1.5 CALM 0 0 0 0 1012.4 1012.3 -
25/06:00am 20.2 21.7 18.1 88 1.3 SSW 7 9 4 5 1012.3 1012.2 -
25/05:30am 19.9 22.7 17.9 88 1.2 CALM 0 7 0 4 1012.0 1011.9 -
25/05:00am 19.7 21.7 17.8 89 1.2 ENE 4 7 2 4 1012.1 1012.0 -
25/04:30am 19.0 21.1 17.1 89 1.2 N 2 7 1 4 1012.0 1011.9 0.0
25/04:00am 19.3 21.9 17.4 89 1.2 CALM 0 0 0 0 1012.0 1011.9 -
25/03:30am 19.4 22.0 17.5 89 1.2 CALM 0 2 0 1 1012.1 1012.0 -
25/03:00am 19.6 22.3 17.7 89 1.2 CALM 0 0 0 0 1012.3 1012.2 -
25/02:30am 19.9 22.7 18.0 89 1.2 CALM 0 0 0 0 1012.6 1012.5 -
25/02:00am 20.6 23.8 18.9 90 1.1 CALM 0 0 0 0 1012.9 1012.8 -
25/01:30am 20.5 23.6 18.6 89 1.2 CALM 0 0 0 0 1013.1 1013.0 -
25/01:00am 20.0 22.8 18.0 88 1.2 CALM 0 0 0 0 1013.1 1013.0 -
25/12:30am 20.4 22.1 18.0 86 1.5 S 6 7 3 4 1013.3 1013.2 -
25/12:00am 21.2 23.7 19.1 88 1.3 S 4 7 2 4 1013.4 1013.3 -
 
Date/Time
CST
Temp
°C
App
Temp
°C
Dew
Point
°C
Rel
Hum
%
Delta-T
°C
Wind Press
QNH
hPa
Press
MSL
hPa
Rain since
9am
mm
Dir  Spd
km/h
Gust
km/h
Spd
kts
Gust
kts
24/11:30pm 21.4 24.7 19.1 87 1.5 CALM 0 0 0 0 1013.5 1013.4 -
24/11:00pm 21.6 23.7 19.0 85 1.6 SE 6 7 3 4 1013.5 1013.4 -
24/10:30pm 22.0 25.4 19.4 85 1.7 CALM 0 0 0 0 1013.3 1013.2 -
24/10:00pm 22.6 26.0 19.4 82 2.0 CALM 0 0 0 0 1013.4 1013.3 0.0
24/09:30pm 23.2 26.5 19.2 78 2.5 CALM 0 0 0 0 1013.2 1013.1 0.0
24/09:00pm 25.2 27.7 19.8 72 3.5 NNW 6 9 3 5 1012.7 1012.6 0.0
24/08:30pm 25.8 27.9 20.1 71 3.7 NNW 9 11 5 6 1012.3 1012.2 0.0
24/08:00pm 26.1 27.7 20.0 69 4.0 NNW 11 15 6 8 1011.8 1011.7 0.0
24/07:30pm 26.4 28.0 20.0 68 4.2 NNW 11 15 6 8 1011.4 1011.3 0.0
24/07:00pm 27.0 28.6 19.1 62 5.1 NNW 9 17 5 9 1010.8 1010.7 0.0
24/06:30pm 28.1 29.0 18.5 56 6.2 NNW 11 17 6 9 1010.3 1010.2 0.0
24/06:00pm 29.1 29.0 17.9 50 7.1 NNW 15 24 8 13 1009.9 1009.8 0.0
24/05:30pm 29.7 28.6 17.2 47 7.9 NNW 19 26 10 14 1009.6 1009.5 0.0
24/05:00pm 31.8 30.4 16.5 39 9.6 N 19 28 10 15 1009.5 1009.4 0.0
24/04:30pm 32.3 29.9 14.4 33 11.0 NNW 20 30 11 16 1009.2 1009.1 0.0
24/04:00pm 33.8 30.5 12.7 27 12.7 N 22 33 12 18 1009.0 1008.9 0.0
24/03:30pm 35.1 31.4 12.7 26 13.5 N 24 35 13 19 1009.1 1009.0 0.0
24/03:00pm 37.2 34.3 8.1 17 16.5 NNE 13 20 7 11 1009.2 1009.1 0.0
24/02:30pm 37.0 34.3 8.8 18 16.2 E 13 20 7 11 1009.8 1009.7 0.0
24/02:00pm 36.2 32.7 8.9 19 15.6 ESE 17 26 9 14 1010.3 1010.2 0.0
24/01:30pm 36.1 33.8 10.3 21 15.1 NE 13 20 7 11 1010.9 1010.8 0.0
24/01:00pm 36.1 34.3 11.0 22 14.8 E 11 20 6 11 1011.6 1011.5 0.0
24/12:30pm 35.0 32.8 10.8 23 14.2 E 13 24 7 13 1012.2 1012.1 0.0
24/12:00pm 35.1 33.1 11.5 24 14.0 ESE 13 22 7 12 1012.7 1012.6 0.0
24/11:30am 32.8 31.8 12.4 29 12.1 SSW 9 15 5 8 1013.0 1012.9 0.0
24/11:00am 30.5 28.8 12.4 33 10.7 S 13 19 7 10 1013.3 1013.2 0.0
24/10:30am 29.4 28.2 12.8 36 9.8 S 11 15 6 8 1013.4 1013.3 0.0
24/10:00am 27.0 26.6 14.1 45 7.7 S 9 13 5 7 1013.7 1013.6 0.0
24/09:30am 25.1 25.3 14.6 52 6.3 S 7 13 4 7 1013.5 1013.4 0.0
24/09:00am 23.1 23.0 14.9 60 4.9 S 9 15 5 8 1013.3 1013.2 0.0
24/08:30am 20.8 21.6 15.8 73 3.0 S 6 9 3 5 1012.9 1012.8 0.0
24/08:00am 17.5 18.0 14.0 80 2.0 SSE 4 6 2 3 1012.6 1012.5 0.0
24/07:30am 18.2 18.4 14.1 77 2.4 S 6 7 3 4 1012.6 1012.5 0.0
24/07:00am 19.1 19.5 15.2 78 2.3 S 7 11 4 6 1012.2 1012.1 0.0
24/06:30am 16.4 17.6 13.7 84 1.5 CALM 0 6 0 3 1012.1 1012.0 0.0
24/06:00am 17.0 17.3 14.6 86 1.4 S 6 9 3 5 1012.0 1011.9 0.0
24/05:30am 16.3 16.8 14.0 86 1.3 SE 4 6 2 3 1011.9 1011.8 0.0
24/05:00am 16.5 17.8 14.2 86 1.3 CALM 0 6 0 3 1011.8 1011.7 0.0
24/04:30am 16.8 17.1 14.4 86 1.4 SSE 6 7 3 4 1011.7 1011.6 0.0
24/04:00am 16.9 18.3 14.4 85 1.4 CALM 0 0 0 0 1011.8 1011.7 0.0
24/03:30am 17.3 18.9 14.8 85 1.4 CALM 0 0 0 0 1012.0 1011.9 0.0
24/03:00am 17.4 18.8 14.5 83 1.7 CALM 0 0 0 0 1012.1 1012.0 0.0
24/02:30am 17.8 18.1 15.1 84 1.6 S 7 9 4 5 1012.5 1012.4 0.0
24/02:00am 18.1 19.9 15.4 84 1.6 CALM 0 0 0 0 1012.5 1012.4 0.0
24/01:30am 18.1 19.8 15.2 83 1.7 CALM 0 0 0 0 1012.5 1012.4 0.0
24/01:00am 18.4 20.1 15.1 81 1.9 CALM 0 0 0 0 1012.6 1012.5 0.0
24/12:30am 18.9 19.8 15.0 78 2.3 S 4 7 2 4 1012.7 1012.6 0.0
24/12:00am 19.3 20.5 15.0 76 2.5 SSE 2 7 1 4 1012.7 1012.6 0.0
 
Date/Time
CST
Temp
°C
App
Temp
°C
Dew
Point
°C
Rel
Hum
%
Delta-T
°C
Wind Press
QNH
hPa
Press
MSL
hPa
Rain since
9am
mm
Dir  Spd
km/h
Gust
km/h
Spd
kts
Gust
kts
23/11:30pm 20.1 21.8 15.3 74 2.8 CALM 0 0 0 0 1012.5 1012.4 0.0
23/11:00pm 20.0 21.8 15.4 75 2.7 CALM 0 0 0 0 1012.5 1012.4 0.0
23/10:30pm 20.9 21.8 16.1 74 2.9 SSE 6 7 3 4 1012.5 1012.4 0.0
23/10:00pm 21.1 23.1 15.9 72 3.1 CALM 0 0 0 0 1012.2 1012.1 0.0
23/09:30pm 21.8 23.6 15.6 68 3.7 CALM 0 0 0 0 1012.0 1011.9 0.0
23/09:00pm 22.5 24.4 15.8 66 4.0 CALM 0 0 0 0 1011.7 1011.6 0.0
23/08:30pm 23.4 24.9 15.7 62 4.6 WNW 2 6 1 3 1011.3 1011.2 0.0
23/08:00pm 24.7 26.2 15.6 57 5.5 N 2 6 1 3 1010.9 1010.8 0.0
23/07:30pm 26.3 27.0 16.0 53 6.3 N 7 11 4 6 1010.5 1010.4 0.0
23/07:00pm 27.4 27.7 16.1 50 7.0 NNW 9 17 5 9 1010.4 1010.3 0.0
23/06:30pm 28.8 28.6 14.6 42 8.6 N 9 17 5 9 1010.0 1009.9 0.0
23/06:00pm 30.5 29.4 14.2 37 9.9 N 13 20 7 11 1009.6 1009.5 0.0
23/05:30pm 31.7 30.5 13.9 34 10.8 NNW 13 17 7 9 1009.5 1009.4 0.0
23/05:00pm 32.3 29.9 12.5 30 11.8 NNW 17 24 9 13 1009.1 1009.0 0.0
23/04:30pm 33.7 31.5 13.2 29 12.4 NNW 17 22 9 12 1009.2 1009.1 0.0
23/04:00pm 33.4 29.8 10.7 25 13.2 N 20 28 11 15 1009.3 1009.2 0.0
23/03:30pm 36.1 32.6 7.2 17 16.1 NNE 15 24 8 13 1009.4 1009.3 0.0
23/03:00pm 36.7 34.1 7.7 17 16.3 E 11 24 6 13 1009.8 1009.7 0.0
23/02:30pm 35.3 32.2 7.4 18 15.5 E 13 19 7 10 1010.4 1010.3 0.0
23/02:00pm 35.3 32.8 8.2 19 15.3 NE 11 17 6 9 1010.9 1010.8 0.0
23/01:30pm 35.0 32.0 7.9 19 15.2 ESE 13 20 7 11 1011.4 1011.3 0.0
23/01:00pm 34.9 32.1 8.6 20 14.9 SE 13 28 7 15 1011.8 1011.7 0.0
23/12:30pm 34.0 31.4 9.3 22 14.1 ESE 13 24 7 13 1012.3 1012.2 0.0
23/12:00pm 33.2 32.2 11.1 26 12.9 SW 7 13 4 7 1012.9 1012.8 0.0
23/11:30am 31.1 29.6 12.0 31 11.2 S 11 17 6 9 1013.4 1013.3 0.0
23/11:00am 29.3 28.0 11.4 33 10.3 S 9 17 5 9 1013.9 1013.8 0.0
23/10:30am 27.2 25.9 12.4 40 8.6 S 11 17 6 9 1014.3 1014.2 0.0
23/10:00am 25.5 24.7 13.0 46 7.3 S 9 15 5 8 1014.3 1014.2 0.0
23/09:30am 23.9 24.1 14.6 56 5.5 S 7 11 4 6 1014.2 1014.1 0.0
23/09:00am 22.2 21.9 14.3 61 4.6 S 9 13 5 7 1014.1 1014.0 0.0
23/08:30am 20.1 20.4 14.9 72 3.1 SSW 7 11 4 6 1013.9 1013.8 0.0
23/08:00am 16.2 17.4 13.9 86 1.3 CALM 0 0 0 0 1013.6 1013.5 0.0
23/07:30am 15.3 15.8 12.8 85 1.4 SW 2 7 1 4 1013.2 1013.1 0.0
23/07:00am 16.2 17.2 13.3 83 1.6 CALM 0 0 0 0 1012.9 1012.8 0.0
23/06:30am 15.5 15.6 12.8 84 1.5 WSW 4 6 2 3 1012.7 1012.6 0.0
23/06:00am 14.7 14.4 12.6 87 1.1 S 6 9 3 5 1012.6 1012.5 0.0
23/05:30am 14.9 14.7 12.9 88 1.1 SSE 6 9 3 5 1012.3 1012.2 0.0
23/05:00am 14.7 15.5 12.6 87 1.1 CALM 0 0 0 0 1012.3 1012.2 0.0
23/04:30am 14.7 15.5 12.7 88 1.1 CALM 0 0 0 0 1012.3 1012.2 0.0
23/04:00am 15.1 16.0 13.0 87 1.2 CALM 0 0 0 0 1012.3 1012.2 0.0
23/03:30am 15.2 16.2 13.1 87 1.2 CALM 0 0 0 0 1012.4 1012.3 0.0
23/03:00am 15.5 16.4 13.0 85 1.4 CALM 0 0 0 0 1012.6 1012.5 0.0
23/02:30am 15.6 16.6 13.3 86 1.3 CALM 0 0 0 0 1012.8 1012.7 0.0
23/02:00am 15.9 16.8 13.0 83 1.6 CALM 0 0 0 0 1012.8 1012.7 0.0
23/01:30am 16.4 17.5 13.5 83 1.6 CALM 0 0 0 0 1013.0 1012.9 0.0
23/01:00am 16.9 18.0 13.6 81 1.9 CALM 0 0 0 0 1013.1 1013.0 0.0
23/12:30am 17.3 18.5 13.8 80 2.0 CALM 0 0 0 0 1013.2 1013.1 0.0
23/12:00am 17.1 17.3 13.0 77 2.3 SSE 4 7 2 4 1013.2 1013.1 0.0
 
Date/Time
CST
Temp
°C
App
Temp
°C
Dew
Point
°C
Rel
Hum
%
Delta-T
°C
Wind Press
QNH
hPa
Press
MSL
hPa
Rain since
9am
mm
Dir  Spd
km/h
Gust
km/h
Spd
kts
Gust
kts
22/11:30pm 18.2 19.4 13.7 75 2.6 CALM 0 0 0 0 1013.1 1013.0 0.0
22/11:00pm 18.9 19.4 14.0 73 2.8 S 4 6 2 3 1013.1 1013.0 0.0
22/10:30pm 19.2 20.5 14.0 72 3.0 CALM 0 0 0 0 1012.9 1012.8 0.0
22/10:00pm 19.9 21.1 13.8 68 3.5 CALM 0 0 0 0 1012.8 1012.7 0.0
22/09:30pm 21.1 21.2 14.0 64 4.1 S 6 7 3 4 1012.5 1012.4 0.0
22/09:00pm 21.2 21.3 13.9 63 4.2 SE 6 7 3 4 1012.0 1011.9 0.0
22/08:30pm 21.7 22.5 12.5 56 5.2 CALM 0 0 0 0 1011.7 1011.6 0.0
22/08:00pm 23.6 23.7 14.0 55 5.6 SSW 6 7 3 4 1011.3 1011.2 0.0
22/07:30pm 24.6 25.5 12.9 48 6.8 CALM 0 0 0 0 1010.8 1010.7 0.0
22/07:00pm 26.5 25.9 11.8 40 8.4 NNW 6 7 3 4 1010.4 1010.3 0.0
22/06:30pm 29.7 28.4 11.2 31 10.7 NW 9 13 5 7 1010.2 1010.1 0.0
22/06:00pm 31.2 29.2 10.0 27 12.1 NNW 11 17 6 9 1009.9 1009.8 0.0
22/05:30pm 31.9 28.8 8.8 24 13.0 NNW 15 20 8 11 1009.7 1009.6 0.0

Other Formats:

Comma delimited format used in spreadsheet applications
http://www.bom.gov.au/fwo/IDD60801/IDD60801.94100.axf

JavaScript Object Notation format (JSON) in row-major order
http://www.bom.gov.au/fwo/IDD60801/IDD60801.94100.json